BKPR/PRN METAR and TAF weather

Enter ICAO airport designator
Station Type Date Time Source
BKPR METAR 2018/07/21 23:00 UTC NOAA

BKPR 212300Z VRB01KT CAVOK 18/14 Q1014 NOSIG


Station Type Date Time Source
BKPR Decoded METAR 2018/07/21 23:00 UTC NOAA

Station name not available
Jul 21, 2018 - 07:00 PM EDT / 2018.07.21 2300 UTC
Wind: Variable at 1 MPH (1 KT):0
Visibility: greater than 7 mile(s):0
Temperature: 64 F (18 C)
Dew Point: 57 F (14 C)
Relative Humidity: 77%
Pressure (altimeter): 29.94 in. Hg (1014 hPa)
ob: BKPR 212300Z VRB01KT CAVOK 18/14 Q1014 NOSIG
cycle: 23

Station Type Date Time Source
BKPR TAF 2018/07/21 18:30 UTC NOAA

TAF BKPR 211730Z 2118/2218 22006KT 9999 SCT090
TEMPO 2211/2217 25018KT


Example: see airport list